createdAt,value
2023-04-06T00:00:24.176Z,99.10
2023-04-06T00:03:10.848Z,99.10
2023-04-06T00:05:57.690Z,99.30
2023-04-06T00:08:45.664Z,99.20
2023-04-06T00:11:33.650Z,99.30
2023-04-06T00:14:20.446Z,99.40
2023-04-06T00:17:06.927Z,99.30
2023-04-06T00:19:53.750Z,99.40
2023-04-06T00:22:39.977Z,99.40
2023-04-06T00:25:26.631Z,99.50
2023-04-06T00:28:14.773Z,99.60
2023-04-06T00:31:01.438Z,99.50
2023-04-06T00:33:47.847Z,99.60
2023-04-06T00:36:34.311Z,99.40
2023-04-06T00:39:21.315Z,99.50
2023-04-06T00:42:12.790Z,99.50
2023-04-06T00:45:02.355Z,99.30
2023-04-06T00:47:48.910Z,99.10
2023-04-06T00:50:35.495Z,99.20
2023-04-06T00:53:22.700Z,99.20
2023-04-06T00:56:10.806Z,99.10
2023-04-06T00:58:57.941Z,99.20
2023-04-06T01:01:45.901Z,99.20
2023-04-06T01:04:33.267Z,99.20
2023-04-06T01:07:20.195Z,99.20
2023-04-06T01:10:07.437Z,99.20
2023-04-06T01:12:54.002Z,99.20
2023-04-06T01:15:40.935Z,99.00
2023-04-06T01:18:32.315Z,98.90
2023-04-06T01:21:19.176Z,98.70
2023-04-06T01:24:08.347Z,99.20
2023-04-06T01:26:55.056Z,98.80
2023-04-06T01:29:42.539Z,99.00
2023-04-06T01:32:29.044Z,99.10
2023-04-06T01:35:16.369Z,99.00
2023-04-06T01:38:03.065Z,99.10
2023-04-06T01:40:51.341Z,98.90
2023-04-06T01:43:38.037Z,98.90
2023-04-06T01:46:24.358Z,99.00
2023-04-06T01:49:10.767Z,99.00
2023-04-06T01:51:57.215Z,99.00
2023-04-06T01:54:43.700Z,98.70
2023-04-06T01:57:31.682Z,98.90
2023-04-06T02:00:18.633Z,99.00
2023-04-06T02:03:05.505Z,99.00
2023-04-06T02:05:52.071Z,99.10
2023-04-06T02:08:38.687Z,99.00
2023-04-06T02:11:25.542Z,99.10
2023-04-06T02:14:13.129Z,99.20
2023-04-06T02:16:59.951Z,99.30
2023-04-06T02:19:46.425Z,99.40
2023-04-06T02:22:32.775Z,99.30
2023-04-06T02:25:19.263Z,99.60
2023-04-06T02:28:06.329Z,99.60
2023-04-06T02:30:54.419Z,99.40
2023-04-06T02:33:41.063Z,99.70
2023-04-06T02:36:27.490Z,99.60
2023-04-06T02:39:14.580Z,99.90
2023-04-06T02:42:01.196Z,99.70
2023-04-06T02:44:47.782Z,99.60
2023-04-06T02:47:35.780Z,99.50
2023-04-06T02:50:22.601Z,99.90
2023-04-06T02:53:09.139Z,99.90
2023-04-06T02:55:56.950Z,99.90
2023-04-06T02:58:43.718Z,99.90
2023-04-06T03:01:30.325Z,99.70
2023-04-06T03:04:18.704Z,99.70
2023-04-06T03:07:05.392Z,99.90
2023-04-06T03:09:51.895Z,99.90
2023-04-06T03:12:38.350Z,99.90
2023-04-06T03:15:24.890Z,99.90
2023-04-06T03:18:11.480Z,99.90
2023-04-06T03:21:01.216Z,99.80
2023-04-06T03:23:49.517Z,99.90
2023-04-06T03:26:36.233Z,99.90
2023-04-06T03:29:22.773Z,99.90
2023-04-06T03:32:10.934Z,99.90
2023-04-06T03:34:57.808Z,99.90
2023-04-06T03:37:45.657Z,99.90
2023-04-06T03:40:32.265Z,99.80
2023-04-06T03:43:18.910Z,99.90
2023-04-06T03:46:05.370Z,99.90
2023-04-06T03:48:52.281Z,99.90
2023-04-06T03:51:38.976Z,99.90
2023-04-06T03:54:26.929Z,99.90
2023-04-06T03:57:13.490Z,99.90
2023-04-06T04:00:00.007Z,99.90
2023-04-06T04:02:46.492Z,99.90
2023-04-06T04:05:33.297Z,99.90
2023-04-06T04:08:19.797Z,99.90
2023-04-06T04:11:07.633Z,99.90
2023-04-06T04:13:54.205Z,99.80
2023-04-06T04:16:42.397Z,99.90
2023-04-06T04:19:29.132Z,99.90
2023-04-06T04:22:15.605Z,99.70
2023-04-06T04:25:02.129Z,99.90
2023-04-06T04:27:49.951Z,99.90
2023-04-06T04:30:36.450Z,99.90
2023-04-06T04:33:22.861Z,99.90
2023-04-06T04:36:11.111Z,99.90
2023-04-06T04:38:59.270Z,99.90
2023-04-06T04:41:45.755Z,99.90
2023-04-06T04:44:33.552Z,99.90
2023-04-06T04:47:19.927Z,99.90
2023-04-06T04:50:07.339Z,99.90
2023-04-06T04:52:53.769Z,99.90
2023-04-06T04:55:40.109Z,99.90
2023-04-06T04:58:26.543Z,99.90
2023-04-06T05:01:14.467Z,99.90
2023-04-06T05:04:01.381Z,99.90
2023-04-06T05:06:47.704Z,99.80
2023-04-06T05:09:34.202Z,99.90
2023-04-06T05:12:21.619Z,99.70
2023-04-06T05:15:09.009Z,99.90
2023-04-06T05:17:56.935Z,99.70
2023-04-06T05:20:44.571Z,99.90
2023-04-06T05:23:31.308Z,99.90
2023-04-06T05:26:17.953Z,99.90
2023-04-06T05:29:04.743Z,99.90
2023-04-06T05:31:52.704Z,99.90
2023-04-06T05:34:40.783Z,99.90
2023-04-06T05:37:27.386Z,99.90
2023-04-06T05:40:14.050Z,99.90
2023-04-06T05:43:00.682Z,99.90
2023-04-06T05:45:47.474Z,99.90
2023-04-06T05:48:34.464Z,99.90
2023-04-06T05:51:22.266Z,99.90
2023-04-06T05:54:08.857Z,99.90
2023-04-06T05:56:55.292Z,99.90
2023-04-06T05:59:41.885Z,99.90
2023-04-06T06:02:28.388Z,99.90
2023-04-06T06:05:15.553Z,99.90
2023-04-06T06:08:03.801Z,99.90
2023-04-06T06:10:50.416Z,99.90
2023-04-06T06:13:37.266Z,99.90
2023-04-06T06:16:24.261Z,99.90
2023-04-06T06:19:11.400Z,99.90
2023-04-06T06:21:57.788Z,99.90
2023-04-06T06:24:45.486Z,99.90
2023-04-06T06:27:32.116Z,99.90
2023-04-06T06:30:20.428Z,99.90
2023-04-06T06:33:09.051Z,99.80
2023-04-06T06:35:55.883Z,99.60
2023-04-06T06:38:42.877Z,99.30
2023-04-06T06:41:30.765Z,99.30
2023-04-06T06:44:18.367Z,98.70
2023-04-06T06:47:05.183Z,98.50
2023-04-06T06:49:51.594Z,98.10
2023-04-06T06:52:38.073Z,97.80
2023-04-06T06:55:24.531Z,97.30
2023-04-06T06:58:12.399Z,97.30
2023-04-06T07:00:59.807Z,97.50
2023-04-06T07:03:46.349Z,97.60
2023-04-06T07:06:33.319Z,96.60
2023-04-06T07:09:19.819Z,96.90
2023-04-06T07:12:06.434Z,96.40
2023-04-06T07:14:54.500Z,96.10
2023-04-06T07:17:42.335Z,96.40
2023-04-06T07:20:30.066Z,95.60
2023-04-06T07:23:16.659Z,95.90
2023-04-06T07:26:03.196Z,95.80
2023-04-06T07:28:49.742Z,95.00
2023-04-06T07:31:37.552Z,94.90
2023-04-06T07:34:24.501Z,95.10
2023-04-06T07:37:10.818Z,95.00
2023-04-06T07:39:57.325Z,94.90
2023-04-06T07:42:43.721Z,95.10
2023-04-06T07:45:30.299Z,95.20
2023-04-06T07:48:18.009Z,94.80
2023-04-06T07:51:05.157Z,94.90
2023-04-06T07:53:53.192Z,94.40
2023-04-06T07:56:39.830Z,94.30
2023-04-06T07:59:26.551Z,94.20
2023-04-06T08:02:13.136Z,93.80
2023-04-06T08:05:00.930Z,94.30
2023-04-06T08:07:47.581Z,94.30
2023-04-06T08:10:35.507Z,93.40
2023-04-06T08:13:22.097Z,94.10
2023-04-06T08:16:09.120Z,93.80
2023-04-06T08:18:56.210Z,93.60
2023-04-06T08:21:44.126Z,93.10
2023-04-06T08:24:31.912Z,92.60
2023-04-06T08:27:18.334Z,93.30
2023-04-06T08:30:05.091Z,93.40
2023-04-06T08:32:51.945Z,93.00
2023-04-06T08:35:38.964Z,92.50
2023-04-06T08:38:27.424Z,92.90
2023-04-06T08:41:15.349Z,93.00
2023-04-06T08:44:03.466Z,91.80
2023-04-06T08:46:51.820Z,92.20
2023-04-06T08:49:39.865Z,93.10
2023-04-06T08:52:28.802Z,93.10
2023-04-06T08:55:17.013Z,92.00
2023-04-06T08:58:03.814Z,92.50
2023-04-06T09:00:51.703Z,91.80
2023-04-06T09:03:41.395Z,90.80
2023-04-06T09:06:29.170Z,90.70
2023-04-06T09:09:16.315Z,90.80
2023-04-06T09:12:07.027Z,91.00
2023-04-06T09:14:54.138Z,91.90
2023-04-06T09:17:40.863Z,90.90
2023-04-06T09:20:29.180Z,90.70
2023-04-06T09:23:20.216Z,87.90
2023-04-06T09:26:08.942Z,90.60
2023-04-06T09:28:59.002Z,90.70
2023-04-06T09:31:45.774Z,91.40
2023-04-06T09:34:32.854Z,89.80
2023-04-06T09:37:20.924Z,90.40
2023-04-06T09:40:09.201Z,90.40
2023-04-06T09:42:58.648Z,88.90
2023-04-06T09:45:48.336Z,87.60
2023-04-06T09:48:37.321Z,86.60
2023-04-06T09:51:24.600Z,84.20
2023-04-06T09:54:13.821Z,83.90
2023-04-06T09:57:08.273Z,82.20
2023-04-06T10:00:09.341Z,82.60
2023-04-06T10:03:01.945Z,83.50
2023-04-06T10:05:52.842Z,85.00
2023-04-06T10:08:42.444Z,82.70
2023-04-06T10:11:29.558Z,85.00
2023-04-06T10:14:16.821Z,84.40
2023-04-06T10:17:05.301Z,83.10
2023-04-06T10:19:59.024Z,83.20
2023-04-06T10:22:53.745Z,84.70
2023-04-06T10:25:40.678Z,83.60
2023-04-06T10:28:32.311Z,83.70
2023-04-06T10:31:27.175Z,84.10
2023-04-06T10:34:15.598Z,84.70
2023-04-06T10:37:13.178Z,86.00
2023-04-06T10:39:59.737Z,82.60
2023-04-06T10:42:46.190Z,81.60
2023-04-06T10:45:34.094Z,80.90
2023-04-06T10:48:21.460Z,79.10
2023-04-06T10:51:11.664Z,77.90
2023-04-06T10:54:01.509Z,75.30
2023-04-06T10:56:48.103Z,78.30
2023-04-06T10:59:35.101Z,78.40
2023-04-06T11:02:22.794Z,77.70
2023-04-06T11:05:10.066Z,74.30
2023-04-06T11:07:56.520Z,76.50
2023-04-06T11:10:44.672Z,72.40
2023-04-06T11:13:39.823Z,75.20
2023-04-06T11:16:28.160Z,75.10
2023-04-06T11:19:14.829Z,74.50
2023-04-06T11:22:09.401Z,72.10
2023-04-06T11:25:06.407Z,75.60
2023-04-06T11:27:54.539Z,77.60
2023-04-06T11:30:41.264Z,75.30
2023-04-06T11:33:27.856Z,75.20
2023-04-06T11:36:16.713Z,74.40
2023-04-06T11:39:05.342Z,71.80
2023-04-06T11:41:52.589Z,74.50
2023-04-06T11:44:43.611Z,74.00
2023-04-06T11:47:31.311Z,71.60
2023-04-06T11:50:18.238Z,75.00
2023-04-06T11:53:05.130Z,74.60
2023-04-06T11:55:51.887Z,74.70
2023-04-06T11:58:38.534Z,67.50
2023-04-06T12:01:26.879Z,71.60
2023-04-06T12:04:13.363Z,75.10
2023-04-06T12:07:00.426Z,68.60
2023-04-06T12:09:47.110Z,71.80
2023-04-06T12:12:33.504Z,72.50
2023-04-06T12:15:20.059Z,73.00
2023-04-06T12:18:08.439Z,72.60
2023-04-06T12:20:55.017Z,72.20
2023-04-06T12:23:41.662Z,71.20
2023-04-06T12:26:28.667Z,73.60
2023-04-06T12:29:15.141Z,70.10
2023-04-06T12:32:03.017Z,66.70
2023-04-06T12:34:51.376Z,69.20
2023-04-06T12:37:38.033Z,71.00
2023-04-06T12:40:24.478Z,68.60
2023-04-06T12:43:11.073Z,72.60
2023-04-06T12:45:57.591Z,70.40
2023-04-06T12:48:44.026Z,69.50
2023-04-06T12:51:32.818Z,68.90
2023-04-06T12:54:19.462Z,71.70
2023-04-06T12:57:06.092Z,71.90
2023-04-06T12:59:53.946Z,71.10
2023-04-06T13:02:40.593Z,69.40
2023-04-06T13:05:29.063Z,72.00
2023-04-06T13:08:19.067Z,73.30
2023-04-06T13:11:05.879Z,67.90
2023-04-06T13:13:52.635Z,69.80
2023-04-06T13:16:39.243Z,70.40
2023-04-06T13:19:26.406Z,67.40
2023-04-06T13:22:12.869Z,68.80
2023-04-06T13:25:00.729Z,71.90
2023-04-06T13:27:49.670Z,67.00
2023-04-06T13:30:36.612Z,68.20
2023-04-06T13:33:23.245Z,66.90
2023-04-06T13:36:10.055Z,66.00
2023-04-06T13:38:57.254Z,71.60
2023-04-06T13:41:45.049Z,64.60
2023-04-06T13:44:31.510Z,69.10
2023-04-06T13:47:17.952Z,67.40
2023-04-06T13:50:05.466Z,68.60
2023-04-06T13:52:51.950Z,66.90
2023-04-06T13:55:38.338Z,67.10
2023-04-06T13:58:26.565Z,66.50
2023-04-06T14:01:13.301Z,68.10
2023-04-06T14:04:00.289Z,64.80
2023-04-06T14:06:47.709Z,66.10
2023-04-06T14:09:34.374Z,67.10
2023-04-06T14:12:20.952Z,63.40
2023-04-06T14:15:10.598Z,63.90
2023-04-06T14:17:57.693Z,66.80
2023-04-06T14:20:44.932Z,64.20
2023-04-06T14:23:31.358Z,65.90
2023-04-06T14:26:18.426Z,64.30
2023-04-06T14:29:05.121Z,63.00
2023-04-06T14:31:53.158Z,63.30
2023-04-06T14:34:39.998Z,62.60
2023-04-06T14:37:26.423Z,62.70
2023-04-06T14:40:13.649Z,65.30
2023-04-06T14:43:00.485Z,64.40
2023-04-06T14:45:46.986Z,65.30
2023-04-06T14:48:34.659Z,67.40
2023-04-06T14:51:21.644Z,63.10
2023-04-06T14:54:08.288Z,63.70
2023-04-06T14:56:54.629Z,64.50
2023-04-06T14:59:40.993Z,64.70
2023-04-06T15:02:27.824Z,66.10
2023-04-06T15:05:15.989Z,65.50
2023-04-06T15:08:02.703Z,66.50
2023-04-06T15:10:49.427Z,67.10
2023-04-06T15:13:36.331Z,64.00
2023-04-06T15:16:22.667Z,63.40
2023-04-06T15:19:09.671Z,65.00
2023-04-06T15:21:59.043Z,65.20
2023-04-06T15:24:46.938Z,64.70
2023-04-06T15:27:33.305Z,66.30
2023-04-06T15:30:19.798Z,63.30
2023-04-06T15:33:08.454Z,63.70
2023-04-06T15:35:55.623Z,61.80
2023-04-06T15:38:43.943Z,64.00
2023-04-06T15:41:30.747Z,64.90
2023-04-06T15:44:17.687Z,63.10
2023-04-06T15:47:04.320Z,61.00
2023-04-06T15:49:51.103Z,62.50
2023-04-06T15:52:37.625Z,63.20
2023-04-06T15:55:25.750Z,64.60
2023-04-06T15:58:12.448Z,64.90
2023-04-06T16:00:59.251Z,64.10
2023-04-06T16:03:46.609Z,64.50
2023-04-06T16:06:33.577Z,63.30
2023-04-06T16:09:20.026Z,64.10
2023-04-06T16:12:09.012Z,64.30
2023-04-06T16:14:55.747Z,59.60
2023-04-06T16:17:43.381Z,60.60
2023-04-06T16:20:30.449Z,59.30
2023-04-06T16:23:16.999Z,59.80
2023-04-06T16:26:03.348Z,60.20
2023-04-06T16:28:51.413Z,60.50
2023-04-06T16:31:38.114Z,60.30
2023-04-06T16:34:24.944Z,61.40
2023-04-06T16:37:11.332Z,60.30
2023-04-06T16:39:57.959Z,61.00
2023-04-06T16:42:44.901Z,61.30
2023-04-06T16:45:33.167Z,62.80
2023-04-06T16:48:19.592Z,63.60
2023-04-06T16:51:06.663Z,65.40
2023-04-06T16:53:53.463Z,64.80
2023-04-06T16:56:39.851Z,65.90
2023-04-06T16:59:26.379Z,64.70
2023-04-06T17:02:14.240Z,64.10
2023-04-06T17:05:02.429Z,64.20
2023-04-06T17:07:49.175Z,62.80
2023-04-06T17:10:41.576Z,64.40
2023-04-06T17:13:38.442Z,67.10
2023-04-06T17:19:12.586Z,69.80
2023-04-06T17:21:59.303Z,69.70
2023-04-06T17:24:45.637Z,73.20
2023-04-06T17:27:32.478Z,74.20
2023-04-06T17:30:19.150Z,74.00
2023-04-06T17:33:05.851Z,73.90
2023-04-06T17:35:54.026Z,74.80
2023-04-06T17:38:44.046Z,74.70
2023-04-06T17:41:32.733Z,74.70
2023-04-06T17:44:19.085Z,76.90
2023-04-06T17:47:05.590Z,76.30
2023-04-06T17:49:51.932Z,75.10
2023-04-06T17:52:41.515Z,75.60
2023-04-06T17:55:28.053Z,76.60
2023-04-06T17:58:14.722Z,76.80
2023-04-06T18:01:06.191Z,75.10
2023-04-06T18:03:52.771Z,77.70
2023-04-06T18:06:39.968Z,77.60
2023-04-06T18:09:27.768Z,78.30
2023-04-06T18:12:14.335Z,79.30
2023-04-06T18:15:00.855Z,79.80
2023-04-06T18:17:47.465Z,79.60
2023-04-06T18:20:34.467Z,79.90
2023-04-06T18:23:20.935Z,79.60
2023-04-06T18:26:15.620Z,82.60
2023-04-06T18:29:02.304Z,81.70
2023-04-06T18:31:51.952Z,81.50
2023-04-06T18:34:39.485Z,82.50
2023-04-06T18:37:26.246Z,82.60
2023-04-06T18:40:35.032Z,82.00
2023-04-06T18:43:23.031Z,81.30
2023-04-06T18:46:13.824Z,81.30
2023-04-06T18:49:00.512Z,81.60
2023-04-06T18:51:46.845Z,79.50
2023-04-06T18:54:33.605Z,80.20
2023-04-06T18:57:20.189Z,80.90
2023-04-06T19:00:09.345Z,79.50
2023-04-06T19:02:56.226Z,81.50
2023-04-06T19:05:43.024Z,82.30
2023-04-06T19:08:29.530Z,81.30
2023-04-06T19:11:16.315Z,81.30
2023-04-06T19:14:02.762Z,81.30
2023-04-06T19:16:52.537Z,81.70
2023-04-06T19:19:39.089Z,81.20
2023-04-06T19:22:25.787Z,82.10
2023-04-06T19:25:12.670Z,82.40
2023-04-06T19:27:59.289Z,82.50
2023-04-06T19:30:45.989Z,83.10
2023-04-06T19:33:33.830Z,80.50
2023-04-06T19:36:21.725Z,82.40
2023-04-06T19:39:08.099Z,82.90
2023-04-06T19:41:55.078Z,84.40
2023-04-06T19:44:41.522Z,85.30
2023-04-06T19:47:27.924Z,85.80
2023-04-06T19:50:16.181Z,86.20
2023-04-06T19:53:03.375Z,86.70
2023-04-06T19:55:49.965Z,87.30
2023-04-06T19:58:36.375Z,86.80
2023-04-06T20:01:22.861Z,87.40
2023-04-06T20:04:12.431Z,86.60
2023-04-06T20:07:01.014Z,89.10
2023-04-06T20:09:48.261Z,89.60
2023-04-06T20:12:35.441Z,89.70
2023-04-06T20:15:23.145Z,90.20
2023-04-06T20:18:09.867Z,90.40
2023-04-06T20:20:56.887Z,91.00
2023-04-06T20:23:44.461Z,90.60
2023-04-06T20:26:31.069Z,90.20
2023-04-06T20:29:18.030Z,90.70
2023-04-06T20:32:04.588Z,90.50
2023-04-06T20:34:51.435Z,90.60
2023-04-06T20:37:38.851Z,90.70
2023-04-06T20:40:27.521Z,90.70
2023-04-06T20:43:14.058Z,91.10
2023-04-06T20:46:02.422Z,90.70
2023-04-06T20:48:49.689Z,91.10
2023-04-06T20:51:37.084Z,91.10
2023-04-06T20:54:23.773Z,91.40
2023-04-06T20:57:11.720Z,91.10
2023-04-06T20:59:58.205Z,91.30
2023-04-06T21:02:44.797Z,91.60
2023-04-06T21:05:31.595Z,91.70
2023-04-06T21:08:19.129Z,92.20
2023-04-06T21:11:06.311Z,91.80
2023-04-06T21:13:54.303Z,91.90
2023-04-06T21:16:40.829Z,91.50
2023-04-06T21:19:27.964Z,91.60
2023-04-06T21:22:14.690Z,92.90
2023-04-06T21:25:01.190Z,92.50
2023-04-06T21:27:47.617Z,92.70
2023-04-06T21:30:37.206Z,92.80
2023-04-06T21:33:24.375Z,93.20
2023-04-06T21:36:11.173Z,93.20
2023-04-06T21:38:57.852Z,93.30
2023-04-06T21:41:44.209Z,93.50
2023-04-06T21:44:30.756Z,93.40
2023-04-06T21:47:18.490Z,93.40
2023-04-06T21:50:05.709Z,93.70
2023-04-06T21:52:52.207Z,93.70
2023-04-06T21:55:43.788Z,94.10
2023-04-06T21:58:30.470Z,94.10
2023-04-06T22:01:17.726Z,94.30
2023-04-06T22:04:06.457Z,94.30
2023-04-06T22:06:53.013Z,94.20
2023-04-06T22:09:39.273Z,94.60
2023-04-06T22:12:25.767Z,94.50
2023-04-06T22:15:13.707Z,94.80
2023-04-06T22:18:00.948Z,95.10
2023-04-06T22:20:49.642Z,95.20
2023-04-06T22:23:41.968Z,95.50
2023-04-06T22:26:28.666Z,95.60
2023-04-06T22:29:14.977Z,95.70
2023-04-06T22:32:01.351Z,95.90
2023-04-06T22:34:48.349Z,96.20
2023-04-06T22:37:36.014Z,96.20
2023-04-06T22:40:22.669Z,96.30
2023-04-06T22:43:09.348Z,96.30
2023-04-06T22:45:55.736Z,96.30
2023-04-06T22:48:42.057Z,96.40
2023-04-06T22:51:29.107Z,96.70
2023-04-06T22:54:16.990Z,97.00
2023-04-06T22:57:03.665Z,97.10
2023-04-06T22:59:50.204Z,97.00
2023-04-06T23:02:36.803Z,97.10
2023-04-06T23:05:23.874Z,97.60
2023-04-06T23:08:10.663Z,97.60
2023-04-06T23:10:58.772Z,97.60
2023-04-06T23:13:45.372Z,97.60
2023-04-06T23:16:31.800Z,97.60
2023-04-06T23:19:18.309Z,98.10
2023-04-06T23:22:04.658Z,97.60
2023-04-06T23:24:51.409Z,98.30
2023-04-06T23:27:39.132Z,98.80
2023-04-06T23:30:25.666Z,98.60
2023-04-06T23:33:12.168Z,98.60
2023-04-06T23:35:58.555Z,98.90
2023-04-06T23:38:44.984Z,99.00
2023-04-06T23:41:31.701Z,99.30
2023-04-06T23:44:19.898Z,99.30
2023-04-06T23:47:06.608Z,99.60
2023-04-06T23:49:53.029Z,99.60
2023-04-06T23:52:39.554Z,99.80
2023-04-06T23:55:25.748Z,99.70
2023-04-06T23:58:12.161Z,99.30
